createdAt,value
2022-08-05T00:00:03.663Z,60.83
2022-08-05T00:01:25.225Z,60.83
2022-08-05T00:02:07.765Z,60.33
2022-08-05T00:03:04.635Z,60.63
2022-08-05T00:04:03.667Z,60.43
2022-08-05T00:05:05.916Z,60.43
2022-08-05T00:06:22.098Z,60.63
2022-08-05T00:07:27.019Z,60.63
2022-08-05T00:08:04.741Z,60.43
2022-08-05T00:09:03.576Z,60.53
2022-08-05T00:10:03.563Z,60.63
2022-08-05T00:11:03.588Z,60.43
2022-08-05T00:12:03.559Z,60.63
2022-08-05T00:13:03.543Z,60.63
2022-08-05T00:14:12.887Z,60.63
2022-08-05T00:15:54.404Z,61.12
2022-08-05T00:16:04.517Z,61.72
2022-08-05T00:17:03.507Z,61.72
2022-08-05T00:18:03.503Z,61.62
2022-08-05T00:19:03.530Z,61.42
2022-08-05T00:20:03.480Z,61.05
2022-08-05T00:21:03.450Z,61.75
2022-08-05T00:22:03.448Z,61.75
2022-08-05T00:23:12.917Z,61.85
2022-08-05T00:24:09.846Z,62.15
2022-08-05T00:25:03.451Z,62.05
2022-08-05T00:26:03.429Z,62.24
2022-08-05T00:27:04.695Z,62.74
2022-08-05T00:28:04.389Z,62.47
2022-08-05T00:29:03.386Z,62.27
2022-08-05T00:30:35.293Z,62.47
2022-08-05T00:31:04.619Z,63.10
2022-08-05T00:32:13.476Z,63.40
2022-08-05T00:33:04.339Z,62.47
2022-08-05T00:34:53.953Z,63.67
2022-08-05T00:35:07.621Z,63.67
2022-08-05T00:36:15.072Z,63.27
2022-08-05T00:37:09.928Z,63.27
2022-08-05T00:38:04.284Z,62.77
2022-08-05T00:39:04.335Z,62.97
2022-08-05T00:40:03.298Z,63.27
2022-08-05T00:41:03.277Z,62.47
2022-08-05T00:42:03.274Z,62.57
2022-08-05T00:43:07.420Z,62.50
2022-08-05T00:44:03.243Z,62.60
2022-08-05T00:45:03.214Z,62.97
2022-08-05T00:46:03.220Z,62.90
2022-08-05T00:47:04.144Z,62.90
2022-08-05T00:48:05.574Z,62.87
2022-08-05T00:49:03.182Z,62.60
2022-08-05T00:50:03.178Z,62.90
2022-08-05T00:51:08.785Z,63.43
2022-08-05T00:52:04.180Z,64.03
2022-08-05T00:53:03.142Z,64.03
2022-08-05T00:54:04.142Z,64.00
2022-08-05T00:55:03.130Z,64.62
2022-08-05T00:56:03.121Z,64.22
2022-08-05T00:57:03.121Z,63.79
2022-08-05T00:58:03.088Z,64.00
2022-08-05T00:59:03.093Z,64.79
2022-08-05T01:00:03.075Z,64.19
2022-08-05T01:01:03.140Z,64.89
2022-08-05T01:02:03.049Z,64.09
2022-08-05T01:03:03.060Z,64.09
2022-08-05T01:04:03.030Z,64.59
2022-08-05T01:05:03.022Z,64.32
2022-08-05T01:06:05.363Z,64.62
2022-08-05T01:07:05.173Z,65.02
2022-08-05T01:08:41.504Z,65.22
2022-08-05T01:09:03.977Z,64.62
2022-08-05T01:10:02.982Z,64.52
2022-08-05T01:11:03.989Z,64.69
2022-08-05T01:12:18.108Z,64.92
2022-08-05T01:13:12.852Z,64.72
2022-08-05T01:14:03.940Z,65.31
2022-08-05T01:15:04.065Z,64.65
2022-08-05T01:16:02.950Z,64.65
2022-08-05T01:17:02.911Z,65.35
2022-08-05T01:18:02.895Z,65.91
2022-08-05T01:19:02.921Z,65.61
2022-08-05T01:20:03.707Z,65.02
2022-08-05T01:21:03.896Z,65.05
2022-08-05T01:22:03.854Z,65.35
2022-08-05T01:23:14.399Z,64.75
2022-08-05T01:24:14.155Z,65.25
2022-08-05T01:25:04.491Z,65.94
2022-08-05T01:26:02.816Z,64.95
2022-08-05T01:27:17.635Z,65.05
2022-08-05T01:28:03.787Z,65.45
2022-08-05T01:29:05.100Z,66.24
2022-08-05T01:30:02.776Z,66.44
2022-08-05T01:31:02.975Z,66.44
2022-08-05T01:32:02.812Z,66.14
2022-08-05T01:33:02.746Z,66.64
2022-08-05T01:34:02.748Z,66.14
2022-08-05T01:35:02.731Z,67.63
2022-08-05T01:36:03.719Z,67.63
2022-08-05T01:37:02.733Z,67.24
2022-08-05T01:38:02.699Z,67.57
2022-08-05T01:39:02.834Z,67.67
2022-08-05T01:40:02.743Z,67.67
2022-08-05T01:41:02.665Z,68.27
2022-08-05T01:42:02.670Z,68.37
2022-08-05T01:43:02.670Z,68.40
2022-08-05T01:44:02.809Z,68.37
2022-08-05T01:45:03.238Z,68.46
2022-08-05T01:46:07.423Z,68.66
2022-08-05T01:47:05.226Z,68.96
2022-08-05T01:48:02.593Z,69.36
2022-08-05T01:49:02.609Z,69.26
2022-08-05T01:50:03.605Z,69.66
2022-08-05T01:51:12.054Z,70.39
2022-08-05T01:52:17.448Z,70.79
2022-08-05T01:53:03.890Z,71.19
2022-08-05T01:54:02.540Z,70.79
2022-08-05T01:55:02.533Z,72.52
2022-08-05T01:56:04.323Z,73.11
2022-08-05T01:58:10.552Z,73.31
2022-08-05T01:58:12.657Z,74.21
2022-08-05T01:59:03.492Z,74.71
2022-08-05T02:00:02.490Z,74.60
2022-08-05T02:01:02.486Z,74.30
2022-08-05T02:02:02.508Z,74.64
2022-08-05T02:03:03.673Z,75.24
2022-08-05T02:04:02.439Z,75.14
2022-08-05T02:05:03.234Z,75.24
2022-08-05T02:06:03.560Z,75.04
2022-08-05T02:07:03.581Z,75.44
2022-08-05T02:08:02.445Z,75.54
2022-08-05T02:09:02.394Z,75.64
2022-08-05T02:10:02.405Z,75.54
2022-08-05T02:11:02.395Z,75.64
2022-08-05T02:12:02.370Z,75.84
2022-08-05T02:13:02.375Z,75.67
2022-08-05T02:14:02.373Z,75.37
2022-08-05T02:15:03.082Z,75.44
2022-08-05T02:16:02.321Z,74.94
2022-08-05T02:17:02.341Z,75.24
2022-08-05T02:18:32.276Z,75.14
2022-08-05T02:19:07.225Z,75.14
2022-08-05T02:20:02.290Z,74.74
2022-08-05T02:21:02.269Z,74.34
2022-08-05T02:22:02.312Z,74.60
2022-08-05T02:23:02.257Z,74.74
2022-08-05T02:24:02.257Z,74.74
2022-08-05T02:25:02.269Z,75.14
2022-08-05T02:26:02.228Z,74.94
2022-08-05T02:27:09.913Z,75.57
2022-08-05T02:28:08.670Z,76.27
2022-08-05T02:29:04.022Z,77.23
2022-08-05T02:30:02.191Z,77.67
2022-08-05T02:31:02.196Z,80.46
2022-08-05T02:32:04.728Z,81.70
2022-08-05T02:33:02.159Z,82.20
2022-08-05T02:34:02.151Z,84.87
2022-08-05T02:35:13.570Z,84.57
2022-08-05T02:36:03.134Z,85.51
2022-08-05T02:37:02.151Z,87.45
2022-08-05T02:38:02.278Z,87.29
2022-08-05T02:39:02.245Z,88.39
2022-08-05T02:40:02.101Z,89.23
2022-08-05T02:41:14.502Z,90.23
2022-08-05T02:42:03.095Z,90.63
2022-08-05T02:43:02.072Z,90.63
2022-08-05T02:44:06.965Z,91.08
2022-08-05T02:45:02.047Z,91.98
2022-08-05T02:46:02.039Z,91.82
2022-08-05T02:47:02.074Z,92.22
2022-08-05T02:48:11.828Z,92.12
2022-08-05T02:49:03.006Z,91.62
2022-08-05T02:50:01.998Z,92.77
2022-08-05T02:51:02.023Z,92.72
2022-08-05T02:52:03.665Z,92.57
2022-08-05T02:53:01.969Z,93.27
2022-08-05T02:54:03.965Z,93.77
2022-08-05T02:55:05.541Z,93.81
2022-08-05T02:56:02.062Z,93.97
2022-08-05T02:57:01.928Z,94.01
2022-08-05T02:58:11.988Z,93.97
2022-08-05T02:59:02.911Z,93.67
2022-08-05T03:00:01.907Z,94.12
2022-08-05T03:01:02.280Z,94.12
2022-08-05T03:02:01.954Z,94.57
2022-08-05T03:03:01.869Z,95.42
2022-08-05T03:04:12.102Z,95.72
2022-08-05T03:05:02.961Z,95.32
2022-08-05T03:06:54.541Z,95.76
2022-08-05T03:07:02.853Z,95.47
2022-08-05T03:08:06.796Z,95.01
2022-08-05T03:09:03.810Z,94.82
2022-08-05T03:10:02.147Z,94.26
2022-08-05T03:11:55.114Z,94.31
2022-08-05T03:12:02.804Z,94.31
2022-08-05T03:13:52.019Z,94.12
2022-08-05T03:14:48.154Z,93.77
2022-08-05T03:15:48.181Z,94.12
2022-08-05T03:16:48.148Z,93.41
2022-08-05T03:17:48.143Z,93.71
2022-08-05T03:18:49.131Z,93.62
2022-08-05T03:19:48.134Z,93.91
2022-08-05T03:20:48.970Z,94.01
2022-08-05T03:21:49.364Z,93.81
2022-08-05T03:22:50.021Z,94.27
2022-08-05T03:23:48.088Z,94.31
2022-08-05T03:24:50.753Z,94.01
2022-08-05T03:26:04.321Z,94.12
2022-08-05T03:26:49.453Z,94.12
2022-08-05T03:27:58.973Z,94.51
2022-08-05T03:28:49.034Z,94.21
2022-08-05T03:30:07.505Z,94.12
2022-08-05T03:30:49.001Z,94.31
2022-08-05T03:31:57.294Z,94.12
2022-08-05T03:32:48.979Z,93.81
2022-08-05T03:33:52.760Z,94.31
2022-08-05T03:34:51.047Z,94.12
2022-08-05T03:35:47.955Z,94.01
2022-08-05T03:36:47.948Z,94.31
2022-08-05T03:37:47.960Z,93.91
2022-08-05T03:38:52.545Z,94.12
2022-08-05T03:40:00.971Z,93.81
2022-08-05T03:40:49.001Z,94.31
2022-08-05T03:41:47.881Z,93.81
2022-08-05T03:42:51.687Z,93.71
2022-08-05T03:44:10.043Z,93.91
2022-08-05T03:44:48.876Z,93.91
2022-08-05T03:45:57.254Z,93.67
2022-08-05T03:46:47.883Z,93.71
2022-08-05T03:47:47.857Z,94.21
2022-08-05T03:48:47.834Z,94.31
2022-08-05T03:49:51.375Z,94.62
2022-08-05T03:50:47.806Z,94.92
2022-08-05T03:52:36.555Z,94.92
2022-08-05T03:55:50.833Z,94.67
2022-08-05T03:55:52.188Z,94.47
2022-08-05T03:55:53.788Z,94.62
2022-08-05T03:56:04.360Z,94.27
2022-08-05T03:56:50.043Z,94.27
2022-08-05T03:57:48.068Z,93.93
2022-08-05T03:58:47.726Z,93.47
2022-08-05T03:59:54.900Z,92.82
2022-08-05T04:00:51.364Z,92.88
2022-08-05T04:01:47.735Z,92.78
2022-08-05T04:02:51.976Z,92.58
2022-08-05T04:04:09.098Z,91.88
2022-08-05T04:04:48.696Z,91.78
2022-08-05T04:05:47.656Z,91.88
2022-08-05T04:06:51.356Z,92.08
2022-08-05T04:07:57.232Z,91.78
2022-08-05T04:08:48.676Z,91.78
2022-08-05T04:09:53.019Z,91.38
2022-08-05T04:10:48.619Z,92.43
2022-08-05T04:11:52.324Z,92.18
2022-08-05T04:12:47.605Z,91.88
2022-08-05T04:13:49.692Z,91.33
2022-08-05T04:14:47.587Z,92.18
2022-08-05T04:16:02.936Z,91.98
2022-08-05T04:16:48.576Z,92.68
2022-08-05T04:17:56.307Z,91.78
2022-08-05T04:18:48.539Z,92.18
2022-08-05T04:19:54.536Z,92.28
2022-08-05T04:20:48.523Z,91.48
2022-08-05T04:22:09.086Z,91.78
2022-08-05T04:22:48.501Z,92.08
2022-08-05T04:24:05.185Z,91.88
2022-08-05T04:24:52.932Z,91.93
2022-08-05T04:26:00.399Z,91.28
2022-08-05T04:26:48.451Z,92.83
2022-08-05T04:27:56.840Z,92.28
2022-08-05T04:28:51.210Z,92.78
2022-08-05T04:29:47.418Z,92.68
2022-08-05T04:30:48.010Z,92.48
2022-08-05T04:31:48.516Z,92.98
2022-08-05T04:32:47.430Z,92.78
2022-08-05T04:34:19.082Z,92.88
2022-08-05T04:34:48.368Z,92.58
2022-08-05T04:36:16.715Z,93.18
2022-08-05T04:36:50.231Z,92.78
2022-08-05T04:38:01.124Z,92.38
2022-08-05T04:38:50.958Z,93.08
2022-08-05T04:39:52.910Z,93.18
2022-08-05T04:40:50.621Z,93.58
2022-08-05T04:41:48.237Z,93.58
2022-08-05T04:42:47.344Z,93.58
2022-08-05T04:43:51.987Z,93.88
2022-08-05T04:44:48.279Z,93.78
2022-08-05T04:45:48.878Z,93.98
2022-08-05T04:46:47.249Z,93.88
2022-08-05T04:47:47.375Z,93.78
2022-08-05T04:48:47.260Z,93.88
2022-08-05T04:50:02.907Z,93.98
2022-08-05T04:51:02.887Z,93.28
2022-08-05T04:51:48.200Z,93.78
2022-08-05T04:52:47.206Z,93.48
2022-08-05T04:53:47.198Z,93.08
2022-08-05T04:54:47.190Z,93.18
2022-08-05T04:56:15.345Z,92.83
2022-08-05T04:56:48.170Z,92.88
2022-08-05T04:57:47.684Z,92.74
2022-08-05T04:58:48.128Z,92.98
2022-08-05T04:59:48.025Z,93.13
2022-08-05T05:00:47.164Z,92.38
2022-08-05T05:02:07.816Z,92.03
2022-08-05T05:02:48.109Z,92.43
2022-08-05T05:03:47.094Z,92.63
2022-08-05T05:04:49.909Z,92.74
2022-08-05T05:06:39.292Z,92.63
2022-08-05T05:06:49.280Z,92.63
2022-08-05T05:07:56.053Z,92.54
2022-08-05T05:08:49.923Z,91.74
2022-08-05T05:09:47.028Z,91.74
2022-08-05T05:10:55.848Z,91.83
2022-08-05T05:11:53.041Z,92.74
2022-08-05T05:12:48.008Z,91.89
2022-08-05T05:13:46.976Z,92.24
2022-08-05T05:14:50.635Z,92.43
2022-08-05T05:15:57.577Z,92.03
2022-08-05T05:16:47.984Z,91.74
2022-08-05T05:17:56.511Z,91.24
2022-08-05T05:19:02.739Z,92.63
2022-08-05T05:19:47.929Z,93.24
2022-08-05T05:20:46.927Z,92.09
2022-08-05T05:21:46.893Z,92.43
2022-08-05T05:22:46.914Z,92.33
2022-08-05T05:24:04.075Z,91.83
2022-08-05T05:24:56.822Z,91.83
2022-08-05T05:25:47.953Z,91.83
2022-08-05T05:26:46.854Z,92.68
2022-08-05T05:27:48.758Z,92.88
2022-08-05T05:28:47.861Z,93.24
2022-08-05T05:30:04.847Z,92.74
2022-08-05T05:30:49.729Z,92.93
2022-08-05T05:31:46.794Z,92.33
2022-08-05T05:32:46.807Z,92.24
2022-08-05T05:33:59.182Z,91.83
2022-08-05T05:34:47.766Z,92.74
2022-08-05T05:35:47.379Z,92.03
2022-08-05T05:36:47.189Z,91.49
2022-08-05T05:37:59.954Z,92.13
2022-08-05T05:38:47.770Z,92.33
2022-08-05T05:39:46.729Z,91.93
2022-08-05T05:40:50.099Z,92.33
2022-08-05T05:41:54.083Z,93.28
2022-08-05T05:42:48.680Z,93.98
2022-08-05T05:43:57.450Z,94.23
2022-08-05T05:44:47.695Z,94.53
2022-08-05T05:45:48.425Z,94.73
2022-08-05T05:46:46.654Z,94.43
2022-08-05T05:48:06.501Z,94.73
2022-08-05T05:48:47.778Z,95.12
2022-08-05T05:49:46.615Z,95.38
2022-08-05T05:50:47.664Z,94.78
2022-08-05T05:51:49.997Z,94.54
2022-08-05T05:52:46.677Z,94.04
2022-08-05T05:53:57.996Z,93.88
2022-08-05T05:54:50.920Z,93.84
2022-08-05T05:55:51.571Z,93.84
2022-08-05T05:56:47.587Z,92.83
2022-08-05T05:57:52.691Z,93.13
2022-08-05T05:58:46.523Z,94.13
2022-08-05T05:59:46.508Z,92.93
2022-08-05T06:00:46.594Z,94.18
2022-08-05T06:01:57.534Z,93.93
2022-08-05T06:02:47.481Z,93.88
2022-08-05T06:04:00.648Z,94.38
2022-08-05T06:04:49.168Z,94.78
2022-08-05T06:05:46.458Z,94.62
2022-08-05T06:06:49.149Z,95.03
2022-08-05T06:08:01.378Z,95.07
2022-08-05T06:08:49.220Z,94.82
2022-08-05T06:10:00.084Z,94.97
2022-08-05T06:10:52.642Z,94.97
2022-08-05T06:11:59.645Z,95.87
2022-08-05T06:12:47.387Z,95.93
2022-08-05T06:13:53.632Z,95.73
2022-08-05T06:14:46.367Z,94.98
2022-08-05T06:16:31.066Z,94.78
2022-08-05T06:16:47.349Z,94.58
2022-08-05T06:17:52.950Z,93.74
2022-08-05T06:18:46.340Z,93.54
2022-08-05T06:19:57.015Z,92.93
2022-08-05T06:20:47.874Z,92.39
2022-08-05T06:21:49.933Z,91.69
2022-08-05T06:22:47.313Z,91.69
2022-08-05T06:23:46.294Z,92.69
2022-08-05T06:24:48.269Z,91.99
2022-08-05T06:26:12.763Z,92.05
2022-08-05T06:26:52.361Z,91.80
2022-08-05T06:28:11.537Z,92.50
2022-08-05T06:28:46.231Z,91.80
2022-08-05T06:30:57.373Z,91.25
2022-08-05T06:31:57.403Z,92.05
2022-08-05T06:32:57.373Z,91.55
2022-08-05T06:34:06.289Z,92.35
2022-08-05T06:34:57.389Z,91.39
2022-08-05T06:36:07.748Z,92.14
2022-08-05T06:36:58.855Z,92.55
2022-08-05T06:37:59.554Z,91.35
2022-08-05T06:38:58.471Z,92.25
2022-08-05T06:39:58.416Z,91.75
2022-08-05T06:40:58.415Z,91.71
2022-08-05T06:41:58.891Z,91.46
2022-08-05T06:42:58.395Z,90.46
2022-08-05T06:44:00.634Z,89.62
2022-08-05T06:44:58.369Z,89.02
2022-08-05T06:46:04.083Z,88.28
2022-08-05T06:46:59.372Z,87.14
2022-08-05T06:48:44.358Z,85.90
2022-08-05T06:48:59.250Z,84.50
2022-08-05T06:50:00.807Z,80.31
2022-08-05T06:50:58.326Z,79.05
2022-08-05T06:51:58.306Z,74.41
2022-08-05T06:52:58.762Z,73.05
2022-08-05T06:53:59.300Z,72.86
2022-08-05T06:54:58.288Z,71.50
2022-08-05T06:55:58.277Z,68.10
2022-08-05T06:57:58.043Z,67.65
2022-08-05T06:58:11.660Z,69.62
2022-08-05T06:58:58.256Z,71.07
2022-08-05T06:59:58.399Z,71.63
2022-08-05T07:00:59.291Z,72.99
2022-08-05T07:01:58.208Z,72.39
2022-08-05T07:02:58.201Z,73.88
2022-08-05T07:03:58.195Z,74.24
2022-08-05T07:04:58.206Z,72.92
2022-08-05T07:05:58.183Z,69.68
2022-08-05T07:06:58.218Z,69.02
2022-08-05T07:07:58.165Z,65.48
2022-08-05T07:08:59.044Z,65.19
2022-08-05T07:09:58.576Z,59.56
2022-08-05T07:10:58.134Z,58.55
2022-08-05T07:12:00.489Z,59.45
2022-08-05T07:12:58.115Z,62.52
2022-08-05T07:13:59.735Z,65.97
2022-08-05T07:14:58.112Z,66.79
2022-08-05T07:16:01.623Z,67.05
2022-08-05T07:17:56.580Z,70.18
2022-08-05T07:18:08.303Z,70.64
2022-08-05T07:19:00.071Z,71.94
2022-08-05T07:20:31.277Z,72.56
2022-08-05T07:21:04.849Z,74.29
2022-08-05T07:22:00.479Z,75.95
2022-08-05T07:22:58.021Z,75.55
2022-08-05T07:23:58.022Z,77.57
2022-08-05T07:24:58.024Z,76.44
2022-08-05T07:25:57.996Z,76.14
2022-08-05T07:26:58.002Z,77.87
2022-08-05T07:28:03.932Z,77.37
2022-08-05T07:28:59.960Z,77.93
2022-08-05T07:30:24.043Z,78.13
2022-08-05T07:30:58.946Z,75.95
2022-08-05T07:31:57.930Z,77.37
2022-08-05T07:32:57.997Z,77.37
2022-08-05T07:33:59.839Z,78.70
2022-08-05T07:34:58.691Z,78.84
2022-08-05T07:36:19.356Z,79.87
2022-08-05T07:36:58.882Z,79.27
2022-08-05T07:37:57.901Z,80.60
2022-08-05T07:38:57.887Z,80.80
2022-08-05T07:40:27.027Z,81.30
2022-08-05T07:41:00.399Z,80.90
2022-08-05T07:42:14.609Z,81.90
2022-08-05T07:42:58.858Z,81.10
2022-08-05T07:43:57.826Z,80.11
2022-08-05T07:44:57.813Z,79.17
2022-08-05T07:45:58.741Z,80.77
2022-08-05T07:46:58.791Z,79.83
2022-08-05T07:47:57.788Z,78.94
2022-08-05T07:49:01.679Z,80.13
2022-08-05T07:49:58.765Z,79.24
2022-08-05T07:50:57.760Z,79.77
2022-08-05T07:51:57.763Z,80.57
2022-08-05T07:52:57.737Z,81.10
2022-08-05T07:53:57.742Z,80.71
2022-08-05T07:54:57.717Z,81.60
2022-08-05T07:56:06.412Z,81.44
2022-08-05T07:57:13.575Z,82.54
2022-08-05T07:58:03.171Z,82.84
2022-08-05T07:58:59.229Z,81.94
2022-08-05T07:59:57.687Z,81.74
2022-08-05T08:00:57.687Z,81.04
2022-08-05T08:01:58.011Z,81.50
2022-08-05T08:03:15.088Z,81.10
2022-08-05T08:03:58.628Z,80.41
2022-08-05T08:04:57.654Z,80.35
2022-08-05T08:05:57.605Z,79.91
2022-08-05T08:06:57.603Z,80.80
2022-08-05T08:08:00.256Z,79.71
2022-08-05T08:08:57.582Z,80.71
2022-08-05T08:09:57.574Z,82.34
2022-08-05T08:10:57.572Z,83.03
2022-08-05T08:12:00.095Z,83.13
2022-08-05T08:12:58.532Z,82.64
2022-08-05T08:14:00.775Z,82.37
2022-08-05T08:14:57.534Z,82.48
2022-08-05T08:16:34.569Z,83.33
2022-08-05T08:16:58.508Z,82.93
2022-08-05T08:17:57.524Z,81.54
2022-08-05T08:18:57.492Z,82.14
2022-08-05T08:20:21.994Z,81.84
2022-08-05T08:21:02.872Z,81.14
2022-08-05T08:21:58.470Z,82.00
2022-08-05T08:22:57.467Z,81.30
2022-08-05T08:24:03.843Z,81.56
2022-08-05T08:25:03.385Z,79.97
2022-08-05T08:26:00.698Z,79.83
2022-08-05T08:26:58.416Z,80.33
2022-08-05T08:27:57.410Z,79.93
2022-08-05T08:29:02.261Z,80.33
2022-08-05T08:30:04.021Z,79.60
2022-08-05T08:30:58.397Z,79.63
2022-08-05T08:31:57.366Z,79.10
2022-08-05T08:32:57.368Z,79.60
2022-08-05T08:33:57.399Z,78.56
2022-08-05T08:34:57.333Z,77.53
2022-08-05T08:36:18.399Z,76.74
2022-08-05T08:37:04.572Z,76.93
2022-08-05T08:37:59.311Z,77.77
2022-08-05T08:38:57.562Z,78.36
2022-08-05T08:39:57.345Z,79.60
2022-08-05T08:40:57.312Z,78.70
2022-08-05T08:41:59.964Z,78.40
2022-08-05T08:42:57.409Z,78.96
2022-08-05T08:45:18.193Z,78.11
2022-08-05T08:45:20.090Z,78.86
2022-08-05T08:45:58.261Z,78.66
2022-08-05T08:46:57.238Z,78.06
2022-08-05T08:48:06.805Z,77.87
2022-08-05T08:49:06.213Z,77.37
2022-08-05T08:50:22.509Z,76.38
2022-08-05T08:51:22.493Z,76.28
2022-08-05T08:52:03.820Z,78.20
2022-08-05T08:52:58.202Z,77.91
2022-08-05T08:53:57.166Z,78.70
2022-08-05T08:54:57.793Z,78.30
2022-08-05T08:56:02.813Z,77.31
2022-08-05T08:56:57.141Z,76.93
2022-08-05T08:57:57.958Z,76.34
2022-08-05T08:58:57.147Z,76.25
2022-08-05T08:59:57.097Z,76.40
2022-08-05T09:00:57.200Z,74.15
2022-08-05T09:02:01.135Z,73.85
2022-08-05T09:02:57.082Z,72.75
2022-08-05T09:03:58.322Z,71.47
2022-08-05T09:05:16.372Z,69.98
2022-08-05T09:06:08.881Z,67.81
2022-08-05T09:06:58.300Z,65.80
2022-08-05T09:07:59.052Z,64.59
2022-08-05T09:08:57.016Z,64.00
2022-08-05T09:09:57.056Z,64.42
2022-08-05T09:10:57.017Z,65.77
2022-08-05T09:12:02.259Z,64.29
2022-08-05T09:13:04.469Z,63.93
2022-08-05T09:14:09.570Z,65.90
2022-08-05T09:15:04.749Z,67.87
2022-08-05T09:15:56.964Z,69.23
2022-08-05T09:16:56.964Z,69.98
2022-08-05T09:17:56.961Z,70.28
2022-08-05T09:18:56.938Z,71.50
2022-08-05T09:20:02.927Z,70.71
2022-08-05T09:20:57.922Z,70.15
2022-08-05T09:22:22.226Z,71.97
2022-08-05T09:23:04.827Z,70.48
2022-08-05T09:24:02.092Z,70.08
2022-08-05T09:24:58.883Z,70.57
2022-08-05T09:26:00.091Z,71.97
2022-08-05T09:26:58.787Z,72.49
2022-08-05T09:28:04.599Z,72.75
2022-08-05T09:28:57.862Z,71.27
2022-08-05T09:29:56.832Z,71.97
2022-08-05T09:30:56.822Z,71.04
2022-08-05T09:32:40.407Z,69.79
2022-08-05T09:32:58.024Z,70.91
2022-08-05T09:33:56.816Z,70.48
2022-08-05T09:34:56.784Z,70.51
2022-08-05T09:35:56.774Z,71.60
2022-08-05T09:36:59.749Z,71.90
2022-08-05T09:38:12.808Z,70.28
2022-08-05T09:38:57.797Z,71.14
2022-08-05T09:39:56.823Z,70.74
2022-08-05T09:40:56.731Z,71.14
2022-08-05T09:41:56.737Z,70.48
2022-08-05T09:42:56.701Z,71.57
2022-08-05T09:43:56.700Z,70.61
2022-08-05T09:45:03.139Z,71.08
2022-08-05T09:46:06.225Z,70.61
2022-08-05T09:46:58.026Z,68.63
2022-08-05T09:47:57.441Z,67.80
2022-08-05T09:49:07.625Z,69.49
2022-08-05T09:50:01.973Z,67.25
2022-08-05T09:50:57.641Z,69.26
2022-08-05T09:51:56.653Z,69.26
2022-08-05T09:52:56.608Z,69.06
2022-08-05T09:53:59.143Z,69.46
2022-08-05T09:54:56.607Z,68.93
2022-08-05T09:56:04.808Z,68.17
2022-08-05T09:57:01.598Z,66.03
2022-08-05T09:57:58.646Z,66.03
2022-08-05T09:58:56.619Z,67.41
2022-08-05T09:59:56.554Z,67.71
2022-08-05T10:00:56.544Z,66.75
2022-08-05T10:01:58.402Z,67.25
2022-08-05T10:02:58.589Z,67.28
2022-08-05T10:03:59.545Z,67.11
2022-08-05T10:04:56.505Z,68.07
2022-08-05T10:05:56.525Z,67.64
2022-08-05T10:06:59.462Z,65.66
2022-08-05T10:08:36.660Z,66.22
2022-08-05T10:08:57.505Z,64.42
2022-08-05T10:10:04.335Z,65.60
2022-08-05T10:10:57.470Z,66.29
2022-08-05T10:11:56.444Z,64.28
2022-08-05T10:12:56.432Z,64.09
2022-08-05T10:13:56.464Z,64.68
2022-08-05T10:14:56.428Z,64.22
2022-08-05T10:15:56.426Z,62.57
2022-08-05T10:16:56.398Z,63.98
2022-08-05T10:17:56.751Z,64.28
2022-08-05T10:18:56.391Z,64.15
2022-08-05T10:20:04.208Z,64.61
2022-08-05T10:20:57.368Z,61.94
2022-08-05T10:21:56.346Z,62.04
2022-08-05T10:22:56.345Z,63.03
2022-08-05T10:24:00.406Z,62.17
2022-08-05T10:24:57.361Z,62.99
2022-08-05T10:25:56.328Z,64.81
2022-08-05T10:26:56.382Z,63.32
2022-08-05T10:28:13.705Z,64.31
2022-08-05T10:28:57.290Z,64.28
2022-08-05T10:30:07.195Z,62.99
2022-08-05T10:32:50.784Z,64.67
2022-08-05T10:32:55.166Z,63.29
2022-08-05T10:33:01.375Z,64.78
2022-08-05T10:33:57.245Z,63.98
2022-08-05T10:34:56.246Z,63.98
2022-08-05T10:35:59.740Z,64.38
2022-08-05T10:36:56.203Z,63.59
2022-08-05T10:37:56.208Z,63.06
2022-08-05T10:38:56.231Z,62.47
2022-08-05T10:40:03.865Z,63.03
2022-08-05T10:40:57.971Z,62.14
2022-08-05T10:42:00.548Z,62.04
2022-08-05T10:42:56.150Z,61.94
2022-08-05T10:43:56.161Z,62.14
2022-08-05T10:44:56.162Z,60.93
2022-08-05T10:45:56.133Z,61.03
2022-08-05T10:46:57.137Z,61.85
2022-08-05T10:48:30.327Z,60.19
2022-08-05T10:49:02.682Z,62.50
2022-08-05T10:50:20.258Z,62.79
2022-08-05T10:50:57.080Z,61.41
2022-08-05T10:52:00.119Z,62.10
2022-08-05T10:52:58.820Z,61.58
2022-08-05T10:53:56.055Z,61.25
2022-08-05T10:54:57.275Z,61.88
2022-08-05T10:56:05.287Z,62.37
2022-08-05T10:56:57.306Z,61.16
2022-08-05T10:57:56.019Z,60.52
2022-08-05T10:58:56.018Z,61.80
2022-08-05T11:00:01.790Z,61.61
2022-08-05T11:01:03.011Z,63.09
2022-08-05T11:02:05.261Z,61.88
2022-08-05T11:02:58.056Z,59.80
2022-08-05T11:03:55.997Z,61.48
2022-08-05T11:04:56.003Z,60.13
2022-08-05T11:05:55.962Z,60.03
2022-08-05T11:06:55.974Z,60.59
2022-08-05T11:08:02.618Z,60.19
2022-08-05T11:08:55.917Z,60.49
2022-08-05T11:10:03.679Z,60.10
2022-08-05T11:11:01.058Z,61.71
2022-08-05T11:11:55.921Z,61.71
2022-08-05T11:12:55.995Z,60.10
2022-08-05T11:13:58.309Z,60.52
2022-08-05T11:15:11.648Z,60.10
2022-08-05T11:16:00.961Z,61.08
2022-08-05T11:16:57.755Z,60.36
2022-08-05T11:17:57.083Z,61.75
2022-08-05T11:18:55.832Z,60.10
2022-08-05T11:20:10.612Z,60.07
2022-08-05T11:20:56.825Z,60.69
2022-08-05T11:21:55.793Z,60.89
2022-08-05T11:22:59.180Z,61.29
2022-08-05T11:24:05.500Z,62.17
2022-08-05T11:25:16.830Z,61.21
2022-08-05T11:26:04.711Z,60.46
2022-08-05T11:26:55.765Z,59.94
2022-08-05T11:28:00.800Z,60.41
2022-08-05T11:28:56.768Z,59.02
2022-08-05T11:29:55.738Z,59.26
2022-08-05T11:30:55.731Z,58.18
2022-08-05T11:32:00.050Z,58.37
2022-08-05T11:32:56.748Z,57.22
2022-08-05T11:33:55.829Z,58.18
2022-08-05T11:34:55.687Z,58.87
2022-08-05T11:36:07.521Z,59.36
2022-08-05T11:36:55.673Z,59.88
2022-08-05T11:38:30.136Z,59.32
2022-08-05T11:38:57.544Z,59.34
2022-08-05T11:40:02.859Z,59.45
2022-08-05T11:41:01.061Z,59.97
2022-08-05T11:42:04.240Z,59.38
2022-08-05T11:42:57.623Z,59.47
2022-08-05T11:44:04.320Z,60.07
2022-08-05T11:44:56.603Z,61.25
2022-08-05T11:46:14.948Z,60.33
2022-08-05T11:47:09.948Z,60.07
2022-08-05T11:47:56.580Z,60.46
2022-08-05T11:48:55.614Z,59.77
2022-08-05T11:49:55.574Z,59.97
2022-08-05T11:50:55.553Z,61.05
2022-08-05T11:51:57.296Z,60.66
2022-08-05T11:52:58.011Z,61.94
2022-08-05T11:53:56.512Z,59.94
2022-08-05T11:54:55.778Z,61.13
2022-08-05T11:55:55.495Z,59.45
2022-08-05T11:56:55.494Z,59.84
2022-08-05T11:58:09.615Z,61.32
2022-08-05T11:58:56.468Z,59.97
2022-08-05T11:59:55.462Z,60.17
2022-08-05T12:00:55.460Z,60.53
2022-08-05T12:01:55.458Z,60.41
2022-08-05T12:02:56.561Z,59.61
2022-08-05T12:03:55.838Z,59.15
2022-08-05T12:04:59.111Z,59.55
2022-08-05T12:05:55.414Z,59.45
2022-08-05T12:06:55.386Z,57.37
2022-08-05T12:08:08.341Z,57.24
2022-08-05T12:08:55.408Z,58.43
2022-08-05T12:09:55.378Z,58.33
2022-08-05T12:10:56.086Z,59.22
2022-08-05T12:11:55.364Z,58.14
2022-08-05T12:12:59.969Z,59.32
2022-08-05T12:13:55.355Z,59.02
2022-08-05T12:14:55.325Z,59.29
2022-08-05T12:15:55.850Z,59.19
2022-08-05T12:16:55.306Z,59.09
2022-08-05T12:18:03.694Z,59.48
2022-08-05T12:18:55.282Z,58.92
2022-08-05T12:20:16.671Z,58.63
2022-08-05T12:20:56.306Z,58.56
2022-08-05T12:21:55.260Z,59.25
2022-08-05T12:22:55.254Z,59.25
2022-08-05T12:23:55.254Z,60.07
2022-08-05T12:24:55.225Z,59.97
2022-08-05T12:25:56.895Z,60.07
2022-08-05T12:26:55.220Z,60.30
2022-08-05T12:27:55.195Z,59.38
2022-08-05T12:28:55.188Z,59.28
2022-08-05T12:29:56.961Z,59.58
2022-08-05T12:31:34.263Z,59.28
2022-08-05T12:31:55.466Z,59.55
2022-08-05T12:32:56.400Z,59.74
2022-08-05T12:33:55.209Z,59.84
2022-08-05T12:34:55.294Z,59.45
2022-08-05T12:35:55.199Z,59.55
2022-08-05T12:36:55.144Z,59.25
2022-08-05T12:37:55.615Z,59.81
2022-08-05T12:38:55.159Z,59.29
2022-08-05T12:39:55.169Z,58.11
2022-08-05T12:40:56.088Z,58.01
2022-08-05T12:41:58.028Z,58.33
2022-08-05T12:42:55.123Z,59.32
2022-08-05T12:43:55.059Z,58.20
2022-08-05T12:44:55.048Z,57.88
2022-08-05T12:45:55.044Z,58.40
2022-08-05T12:46:55.027Z,57.32
2022-08-05T12:48:01.408Z,58.63
2022-08-05T12:48:56.015Z,57.97
2022-08-05T12:50:03.508Z,59.05
2022-08-05T12:50:56.004Z,59.42
2022-08-05T12:52:14.006Z,60.04
2022-08-05T12:52:55.972Z,59.25
2022-08-05T12:53:55.887Z,60.36